sensor_id;sensor_type;location;lat;lon;timestamp;P1;durP1;ratioP1;P2;durP2;ratioP2
10888;SDS011;5497;51.388;6.780;2023-04-19T07:12:32;9.27;;;4.17;;
10888;SDS011;5497;51.388;6.780;2023-04-19T07:14:59;6.47;;;4.60;;
10888;SDS011;5497;51.388;6.780;2023-04-19T07:17:30;12.07;;;5.10;;
10888;SDS011;5497;51.388;6.780;2023-04-19T07:19:56;9.40;;;4.47;;
10888;SDS011;5497;51.388;6.780;2023-04-19T07:22:23;6.93;;;4.13;;
10888;SDS011;5497;51.388;6.780;2023-04-19T07:24:50;5.70;;;4.10;;
10888;SDS011;5497;51.388;6.780;2023-04-19T07:27:17;6.13;;;4.40;;
10888;SDS011;5497;51.388;6.780;2023-04-19T07:29:44;6.60;;;3.90;;
10888;SDS011;5497;51.388;6.780;2023-04-19T07:32:11;6.27;;;4.17;;
10888;SDS011;5497;51.388;6.780;2023-04-19T07:34:40;17.37;;;6.00;;
10888;SDS011;5497;51.388;6.780;2023-04-19T07:37:07;6.87;;;4.50;;
10888;SDS011;5497;51.388;6.780;2023-04-19T07:39:34;8.20;;;4.33;;
10888;SDS011;5497;51.388;6.780;2023-04-19T07:42:01;13.13;;;4.60;;
10888;SDS011;5497;51.388;6.780;2023-04-19T07:44:28;6.30;;;4.10;;
10888;SDS011;5497;51.388;6.780;2023-04-19T07:46:55;5.57;;;4.37;;
10888;SDS011;5497;51.388;6.780;2023-04-19T07:49:22;11.80;;;4.83;;
10888;SDS011;5497;51.388;6.780;2023-04-19T07:51:50;5.13;;;3.97;;
10888;SDS011;5497;51.388;6.780;2023-04-19T07:54:17;7.33;;;4.50;;
10888;SDS011;5497;51.388;6.780;2023-04-19T07:56:45;4.60;;;4.07;;
10888;SDS011;5497;51.388;6.780;2023-04-19T07:59:12;5.63;;;4.03;;
10888;SDS011;5497;51.388;6.780;2023-04-19T08:01:39;4.60;;;3.90;;
10888;SDS011;5497;51.388;6.780;2023-04-19T08:04:06;5.57;;;4.10;;
10888;SDS011;5497;51.388;6.780;2023-04-19T08:06:35;4.57;;;3.40;;
10888;SDS011;5497;51.388;6.780;2023-04-19T08:09:05;5.33;;;3.97;;
10888;SDS011;5497;51.388;6.780;2023-04-19T08:11:32;5.90;;;4.17;;
10888;SDS011;5497;51.388;6.780;2023-04-19T08:13:58;6.37;;;3.87;;
10888;SDS011;5497;51.388;6.780;2023-04-19T08:16:25;7.23;;;4.27;;
10888;SDS011;5497;51.388;6.780;2023-04-19T08:18:53;5.03;;;4.10;;
10888;SDS011;5497;51.388;6.780;2023-04-19T08:21:20;5.30;;;4.00;;
10888;SDS011;5497;51.388;6.780;2023-04-19T08:23:47;6.23;;;4.17;;
10888;SDS011;5497;51.388;6.780;2023-04-19T08:26:15;5.70;;;3.90;;
10888;SDS011;5497;51.388;6.780;2023-04-19T08:28:42;4.80;;;3.77;;
10888;SDS011;5497;51.388;6.780;2023-04-19T08:31:09;8.40;;;3.80;;
10888;SDS011;5497;51.388;6.780;2023-04-19T08:33:36;5.00;;;3.70;;
10888;SDS011;5497;51.388;6.780;2023-04-19T08:36:04;6.60;;;3.93;;
10888;SDS011;5497;51.388;6.780;2023-04-19T08:38:31;4.83;;;3.10;;
10888;SDS011;5497;51.388;6.780;2023-04-19T08:40:58;4.33;;;3.33;;
10888;SDS011;5497;51.388;6.780;2023-04-19T08:43:28;5.33;;;3.30;;
10888;SDS011;5497;51.388;6.780;2023-04-19T08:45:57;4.37;;;3.63;;
10888;SDS011;5497;51.388;6.780;2023-04-19T08:48:24;6.03;;;3.73;;
10888;SDS011;5497;51.388;6.780;2023-04-19T08:50:53;6.17;;;3.30;;
10888;SDS011;5497;51.388;6.780;2023-04-19T08:53:23;9.77;;;3.43;;
10888;SDS011;5497;51.388;6.780;2023-04-19T08:55:53;6.13;;;3.37;;
10888;SDS011;5497;51.388;6.780;2023-04-19T08:58:23;8.27;;;3.47;;
10888;SDS011;5497;51.388;6.780;2023-04-19T09:00:51;5.10;;;3.40;;
10888;SDS011;5497;51.388;6.780;2023-04-19T09:03:18;3.43;;;2.53;;
10888;SDS011;5497;51.388;6.780;2023-04-19T09:05:45;6.77;;;3.30;;
10888;SDS011;5497;51.388;6.780;2023-04-19T09:08:21;4.30;;;3.07;;
10888;SDS011;5497;51.388;6.780;2023-04-19T09:10:54;5.47;;;2.67;;
10888;SDS011;5497;51.388;6.780;2023-04-19T09:13:21;2.60;;;2.40;;
10888;SDS011;5497;51.388;6.780;2023-04-19T09:15:50;4.83;;;2.43;;
10888;SDS011;5497;51.388;6.780;2023-04-19T09:18:18;6.37;;;3.00;;
10888;SDS011;5497;51.388;6.780;2023-04-19T09:20:45;2.73;;;2.50;;
10888;SDS011;5497;51.388;6.780;2023-04-19T09:23:13;5.87;;;2.27;;
10888;SDS011;5497;51.388;6.780;2023-04-19T09:25:50;5.17;;;2.70;;
10888;SDS011;5497;51.388;6.780;2023-04-19T09:28:18;7.37;;;2.90;;
